sensor_id;sensor_type;location;lat;lon;timestamp;temperature;humidity
9410;DHT22;4744;52.576;13.568;2022-09-17T00:00:42;11.50;4.90
9410;DHT22;4744;52.576;13.568;2022-09-17T00:03:09;11.50;4.60
9410;DHT22;4744;52.576;13.568;2022-09-17T00:05:36;11.50;3.70
9410;DHT22;4744;52.576;13.568;2022-09-17T00:08:03;11.60;5.00
9410;DHT22;4744;52.576;13.568;2022-09-17T00:10:32;11.60;8.20
9410;DHT22;4744;52.576;13.568;2022-09-17T00:13:03;11.60;4.50
9410;DHT22;4744;52.576;13.568;2022-09-17T00:15:30;11.60;8.60
9410;DHT22;4744;52.576;13.568;2022-09-17T00:17:58;11.60;6.80
9410;DHT22;4744;52.576;13.568;2022-09-17T00:20:25;11.60;5.90
9410;DHT22;4744;52.576;13.568;2022-09-17T00:22:52;11.60;8.20
9410;DHT22;4744;52.576;13.568;2022-09-17T00:25:19;11.60;9.20
9410;DHT22;4744;52.576;13.568;2022-09-17T00:27:46;11.60;7.90
9410;DHT22;4744;52.576;13.568;2022-09-17T00:30:13;11.60;8.30
9410;DHT22;4744;52.576;13.568;2022-09-17T00:32:40;11.60;6.40
9410;DHT22;4744;52.576;13.568;2022-09-17T00:35:08;11.60;8.00
9410;DHT22;4744;52.576;13.568;2022-09-17T00:37:35;11.60;8.10
9410;DHT22;4744;52.576;13.568;2022-09-17T00:40:02;11.60;7.40
9410;DHT22;4744;52.576;13.568;2022-09-17T00:42:29;11.60;10.80
9410;DHT22;4744;52.576;13.568;2022-09-17T00:44:56;11.70;7.00
9410;DHT22;4744;52.576;13.568;2022-09-17T00:47:27;11.70;8.60
9410;DHT22;4744;52.576;13.568;2022-09-17T00:49:58;11.70;9.50
9410;DHT22;4744;52.576;13.568;2022-09-17T00:52:31;11.70;9.50
9410;DHT22;4744;52.576;13.568;2022-09-17T00:55:04;11.70;6.60
9410;DHT22;4744;52.576;13.568;2022-09-17T00:57:32;11.70;7.10
9410;DHT22;4744;52.576;13.568;2022-09-17T00:59:59;11.70;5.80
9410;DHT22;4744;52.576;13.568;2022-09-17T01:02:26;11.70;8.60
9410;DHT22;4744;52.576;13.568;2022-09-17T01:04:53;11.70;9.10
9410;DHT22;4744;52.576;13.568;2022-09-17T01:07:37;11.70;7.50
9410;DHT22;4744;52.576;13.568;2022-09-17T01:10:13;11.70;9.80
9410;DHT22;4744;52.576;13.568;2022-09-17T01:12:57;11.70;8.60
9410;DHT22;4744;52.576;13.568;2022-09-17T01:15:35;11.70;9.70
9410;DHT22;4744;52.576;13.568;2022-09-17T01:18:14;11.70;7.00
9410;DHT22;4744;52.576;13.568;2022-09-17T01:21:30;11.70;6.30
9410;DHT22;4744;52.576;13.568;2022-09-17T01:27:15;11.70;5.50
9410;DHT22;4744;52.576;13.568;2022-09-17T01:30:12;11.70;7.20
9410;DHT22;4744;52.576;13.568;2022-09-17T01:32:43;11.80;7.30
9410;DHT22;4744;52.576;13.568;2022-09-17T01:35:17;11.70;9.10
9410;DHT22;4744;52.576;13.568;2022-09-17T01:37:55;11.80;7.70
9410;DHT22;4744;52.576;13.568;2022-09-17T01:40:25;11.80;8.90
9410;DHT22;4744;52.576;13.568;2022-09-17T01:42:58;11.80;5.70
9410;DHT22;4744;52.576;13.568;2022-09-17T01:45:33;11.80;7.40
9410;DHT22;4744;52.576;13.568;2022-09-17T01:48:04;11.80;7.60
9410;DHT22;4744;52.576;13.568;2022-09-17T01:50:38;11.80;5.10
9410;DHT22;4744;52.576;13.568;2022-09-17T01:53:07;11.80;4.40
9410;DHT22;4744;52.576;13.568;2022-09-17T01:55:38;11.80;4.60
9410;DHT22;4744;52.576;13.568;2022-09-17T01:58:09;11.80;3.40
9410;DHT22;4744;52.576;13.568;2022-09-17T02:00:39;11.80;6.60
9410;DHT22;4744;52.576;13.568;2022-09-17T02:03:13;11.80;3.60
9410;DHT22;4744;52.576;13.568;2022-09-17T02:05:45;11.80;2.40
9410;DHT22;4744;52.576;13.568;2022-09-17T02:08:17;11.80;3.80
9410;DHT22;4744;52.576;13.568;2022-09-17T02:10:48;11.90;1.00
9410;DHT22;4744;52.576;13.568;2022-09-17T02:13:20;11.90;1.00
9410;DHT22;4744;52.576;13.568;2022-09-17T02:15:50;11.90;2.40
9410;DHT22;4744;52.576;13.568;2022-09-17T02:18:24;11.90;1.00
9410;DHT22;4744;52.576;13.568;2022-09-17T02:21:00;11.90;1.00
9410;DHT22;4744;52.576;13.568;2022-09-17T02:23:30;11.90;4.80
9410;DHT22;4744;52.576;13.568;2022-09-17T02:26:04;11.90;2.80
9410;DHT22;4744;52.576;13.568;2022-09-17T02:28:37;11.90;1.30
9410;DHT22;4744;52.576;13.568;2022-09-17T02:31:06;11.90;1.00
9410;DHT22;4744;52.576;13.568;2022-09-17T02:33:34;11.90;1.00
9410;DHT22;4744;52.576;13.568;2022-09-17T02:36:02;11.90;1.00
9410;DHT22;4744;52.576;13.568;2022-09-17T02:38:29;11.90;1.00
9410;DHT22;4744;52.576;13.568;2022-09-17T02:41:00;11.90;1.00
9410;DHT22;4744;52.576;13.568;2022-09-17T02:43:34;11.90;2.20
9410;DHT22;4744;52.576;13.568;2022-09-17T02:46:18;11.90;2.50
9410;DHT22;4744;52.576;13.568;2022-09-17T02:49:06;11.80;1.00
9410;DHT22;4744;52.576;13.568;2022-09-17T02:51:45;11.90;1.00
9410;DHT22;4744;52.576;13.568;2022-09-17T02:54:17;11.80;4.10
9410;DHT22;4744;52.576;13.568;2022-09-17T02:56:54;11.80;1.90
9410;DHT22;4744;52.576;13.568;2022-09-17T02:59:28;11.80;2.70
9410;DHT22;4744;52.576;13.568;2022-09-17T03:01:59;11.80;6.30
9410;DHT22;4744;52.576;13.568;2022-09-17T03:07:05;11.80;6.80
9410;DHT22;4744;52.576;13.568;2022-09-17T03:09:33;11.80;7.20
9410;DHT22;4744;52.576;13.568;2022-09-17T03:12:00;11.80;10.30
9410;DHT22;4744;52.576;13.568;2022-09-17T03:14:28;11.80;12.80
9410;DHT22;4744;52.576;13.568;2022-09-17T03:16:55;11.80;9.50
9410;DHT22;4744;52.576;13.568;2022-09-17T03:19:22;11.80;14.40
9410;DHT22;4744;52.576;13.568;2022-09-17T03:21:48;11.80;14.60
9410;DHT22;4744;52.576;13.568;2022-09-17T03:24:16;11.80;15.10
9410;DHT22;4744;52.576;13.568;2022-09-17T03:26:43;11.80;17.80
9410;DHT22;4744;52.576;13.568;2022-09-17T03:29:11;11.80;16.20
9410;DHT22;4744;52.576;13.568;2022-09-17T03:31:38;11.80;19.80
9410;DHT22;4744;52.576;13.568;2022-09-17T03:34:05;11.80;18.90
9410;DHT22;4744;52.576;13.568;2022-09-17T03:36:32;11.80;18.50
9410;DHT22;4744;52.576;13.568;2022-09-17T03:39:00;11.80;20.10
9410;DHT22;4744;52.576;13.568;2022-09-17T03:41:28;11.80;21.70
9410;DHT22;4744;52.576;13.568;2022-09-17T03:43:55;11.80;21.10
9410;DHT22;4744;52.576;13.568;2022-09-17T03:46:22;11.80;23.20
9410;DHT22;4744;52.576;13.568;2022-09-17T03:48:48;11.80;23.90
9410;DHT22;4744;52.576;13.568;2022-09-17T03:51:15;11.80;23.40
9410;DHT22;4744;52.576;13.568;2022-09-17T03:53:42;11.90;23.50
9410;DHT22;4744;52.576;13.568;2022-09-17T03:56:10;11.90;25.50
9410;DHT22;4744;52.576;13.568;2022-09-17T03:58:38;11.80;25.80
9410;DHT22;4744;52.576;13.568;2022-09-17T04:01:05;11.80;22.30
9410;DHT22;4744;52.576;13.568;2022-09-17T04:03:32;11.90;25.40
9410;DHT22;4744;52.576;13.568;2022-09-17T04:05:59;11.80;22.70
9410;DHT22;4744;52.576;13.568;2022-09-17T04:08:26;11.90;26.20
9410;DHT22;4744;52.576;13.568;2022-09-17T04:10:52;11.90;25.90
9410;DHT22;4744;52.576;13.568;2022-09-17T04:13:19;11.90;26.50
9410;DHT22;4744;52.576;13.568;2022-09-17T04:15:48;11.90;26.00
9410;DHT22;4744;52.576;13.568;2022-09-17T04:18:15;11.90;22.60
9410;DHT22;4744;52.576;13.568;2022-09-17T04:20:41;11.90;26.10
9410;DHT22;4744;52.576;13.568;2022-09-17T04:23:09;11.90;25.50
9410;DHT22;4744;52.576;13.568;2022-09-17T04:25:37;11.90;27.20
9410;DHT22;4744;52.576;13.568;2022-09-17T04:28:03;11.90;25.70
9410;DHT22;4744;52.576;13.568;2022-09-17T04:30:30;11.90;23.50
9410;DHT22;4744;52.576;13.568;2022-09-17T04:32:58;11.90;21.70
9410;DHT22;4744;52.576;13.568;2022-09-17T04:35:25;11.90;23.10
9410;DHT22;4744;52.576;13.568;2022-09-17T04:37:52;11.90;20.40
9410;DHT22;4744;52.576;13.568;2022-09-17T04:40:20;11.80;24.40
9410;DHT22;4744;52.576;13.568;2022-09-17T04:42:47;11.90;22.70
9410;DHT22;4744;52.576;13.568;2022-09-17T04:45:14;11.80;25.00
9410;DHT22;4744;52.576;13.568;2022-09-17T04:47:40;11.80;22.70
9410;DHT22;4744;52.576;13.568;2022-09-17T04:50:09;11.80;24.20
9410;DHT22;4744;52.576;13.568;2022-09-17T04:52:36;11.80;21.30
9410;DHT22;4744;52.576;13.568;2022-09-17T04:55:03;11.80;26.30
9410;DHT22;4744;52.576;13.568;2022-09-17T04:57:30;11.80;22.20
9410;DHT22;4744;52.576;13.568;2022-09-17T04:59:57;11.80;26.10
9410;DHT22;4744;52.576;13.568;2022-09-17T05:02:24;11.90;24.70
9410;DHT22;4744;52.576;13.568;2022-09-17T05:04:50;11.80;23.70
9410;DHT22;4744;52.576;13.568;2022-09-17T05:07:18;11.80;25.40
9410;DHT22;4744;52.576;13.568;2022-09-17T05:09:45;11.80;27.30
9410;DHT22;4744;52.576;13.568;2022-09-17T05:12:12;11.80;27.30
9410;DHT22;4744;52.576;13.568;2022-09-17T05:14:39;11.80;26.90
9410;DHT22;4744;52.576;13.568;2022-09-17T05:17:05;11.80;26.50
9410;DHT22;4744;52.576;13.568;2022-09-17T05:19:32;11.80;24.20
9410;DHT22;4744;52.576;13.568;2022-09-17T05:21:59;11.90;26.80
9410;DHT22;4744;52.576;13.568;2022-09-17T05:24:27;11.90;27.40
9410;DHT22;4744;52.576;13.568;2022-09-17T05:26:54;11.90;25.20
9410;DHT22;4744;52.576;13.568;2022-09-17T05:29:20;11.90;27.10
9410;DHT22;4744;52.576;13.568;2022-09-17T05:31:47;11.90;24.70
9410;DHT22;4744;52.576;13.568;2022-09-17T05:34:14;11.90;27.20
9410;DHT22;4744;52.576;13.568;2022-09-17T05:36:40;11.90;24.00
9410;DHT22;4744;52.576;13.568;2022-09-17T05:39:07;11.90;28.50
9410;DHT22;4744;52.576;13.568;2022-09-17T05:41:36;11.90;25.20
9410;DHT22;4744;52.576;13.568;2022-09-17T05:44:02;11.90;26.70
9410;DHT22;4744;52.576;13.568;2022-09-17T05:46:29;11.90;24.40
9410;DHT22;4744;52.576;13.568;2022-09-17T05:48:56;11.90;27.50
9410;DHT22;4744;52.576;13.568;2022-09-17T05:51:23;11.90;23.90
9410;DHT22;4744;52.576;13.568;2022-09-17T05:53:50;12.00;27.20
9410;DHT22;4744;52.576;13.568;2022-09-17T05:56:19;11.90;26.00
9410;DHT22;4744;52.576;13.568;2022-09-17T05:58:47;12.00;23.90
9410;DHT22;4744;52.576;13.568;2022-09-17T06:01:14;12.00;26.70
9410;DHT22;4744;52.576;13.568;2022-09-17T06:03:41;12.00;25.20
9410;DHT22;4744;52.576;13.568;2022-09-17T06:06:08;12.10;26.50
9410;DHT22;4744;52.576;13.568;2022-09-17T06:08:35;12.10;24.30
9410;DHT22;4744;52.576;13.568;2022-09-17T06:11:03;12.10;24.90
9410;DHT22;4744;52.576;13.568;2022-09-17T06:13:31;12.20;24.60
9410;DHT22;4744;52.576;13.568;2022-09-17T06:16:01;12.20;21.00
9410;DHT22;4744;52.576;13.568;2022-09-17T06:18:28;12.20;19.50
9410;DHT22;4744;52.576;13.568;2022-09-17T06:20:57;12.20;18.80
9410;DHT22;4744;52.576;13.568;2022-09-17T06:23:25;12.20;17.80
9410;DHT22;4744;52.576;13.568;2022-09-17T06:25:52;12.20;18.00
9410;DHT22;4744;52.576;13.568;2022-09-17T06:28:19;12.20;17.00
9410;DHT22;4744;52.576;13.568;2022-09-17T06:30:46;12.30;16.10
9410;DHT22;4744;52.576;13.568;2022-09-17T06:33:15;12.30;13.40
9410;DHT22;4744;52.576;13.568;2022-09-17T06:35:41;12.30;10.50
9410;DHT22;4744;52.576;13.568;2022-09-17T06:38:08;12.40;14.00
9410;DHT22;4744;52.576;13.568;2022-09-17T06:40:35;12.40;9.00
9410;DHT22;4744;52.576;13.568;2022-09-17T06:43:02;12.50;8.70
9410;DHT22;4744;52.576;13.568;2022-09-17T06:45:29;12.50;7.00
9410;DHT22;4744;52.576;13.568;2022-09-17T06:47:56;12.50;6.70
9410;DHT22;4744;52.576;13.568;2022-09-17T06:50:24;12.60;5.50
9410;DHT22;4744;52.576;13.568;2022-09-17T06:52:52;12.60;1.00
9410;DHT22;4744;52.576;13.568;2022-09-17T06:55:19;12.60;1.00
9410;DHT22;4744;52.576;13.568;2022-09-17T06:57:46;12.60;1.00
9410;DHT22;4744;52.576;13.568;2022-09-17T07:00:14;12.70;1.00
9410;DHT22;4744;52.576;13.568;2022-09-17T07:02:40;12.70;1.00
9410;DHT22;4744;52.576;13.568;2022-09-17T07:05:08;12.70;1.00
9410;DHT22;4744;52.576;13.568;2022-09-17T07:07:36;12.70;1.00
9410;DHT22;4744;52.576;13.568;2022-09-17T07:10:06;12.70;1.00
9410;DHT22;4744;52.576;13.568;2022-09-17T07:12:33;12.70;1.00
9410;DHT22;4744;52.576;13.568;2022-09-17T07:15:06;12.70;1.00
9410;DHT22;4744;52.576;13.568;2022-09-17T07:17:32;12.70;1.00
9410;DHT22;4744;52.576;13.568;2022-09-17T07:19:59;12.60;1.00
9410;DHT22;4744;52.576;13.568;2022-09-17T07:22:26;12.70;1.00
9410;DHT22;4744;52.576;13.568;2022-09-17T07:24:54;12.70;1.00
9410;DHT22;4744;52.576;13.568;2022-09-17T07:27:21;12.60;1.00
9410;DHT22;4744;52.576;13.568;2022-09-17T07:29:48;12.70;1.00
9410;DHT22;4744;52.576;13.568;2022-09-17T07:32:14;12.70;1.00
9410;DHT22;4744;52.576;13.568;2022-09-17T07:34:41;12.70;1.00
9410;DHT22;4744;52.576;13.568;2022-09-17T07:37:08;12.70;1.00
9410;DHT22;4744;52.576;13.568;2022-09-17T07:39:35;12.60;1.00
9410;DHT22;4744;52.576;13.568;2022-09-17T07:42:03;12.60;1.00
9410;DHT22;4744;52.576;13.568;2022-09-17T07:44:30;12.60;1.00
9410;DHT22;4744;52.576;13.568;2022-09-17T07:46:57;12.60;1.00
9410;DHT22;4744;52.576;13.568;2022-09-17T07:49:23;12.60;1.00
9410;DHT22;4744;52.576;13.568;2022-09-17T07:51:51;12.60;1.00
9410;DHT22;4744;52.576;13.568;2022-09-17T07:54:19;12.70;1.00
9410;DHT22;4744;52.576;13.568;2022-09-17T07:56:46;12.70;1.00
9410;DHT22;4744;52.576;13.568;2022-09-17T07:59:14;12.80;1.00
9410;DHT22;4744;52.576;13.568;2022-09-17T08:01:41;12.80;1.00
9410;DHT22;4744;52.576;13.568;2022-09-17T08:04:08;12.90;1.00
9410;DHT22;4744;52.576;13.568;2022-09-17T08:06:36;12.90;1.00
9410;DHT22;4744;52.576;13.568;2022-09-17T08:09:04;13.00;1.00
9410;DHT22;4744;52.576;13.568;2022-09-17T08:11:32;13.00;1.00
9410;DHT22;4744;52.576;13.568;2022-09-17T08:13:58;13.00;1.00
9410;DHT22;4744;52.576;13.568;2022-09-17T08:16:27;13.10;1.00
9410;DHT22;4744;52.576;13.568;2022-09-17T08:18:56;13.10;1.00
9410;DHT22;4744;52.576;13.568;2022-09-17T08:21:23;13.10;1.00
9410;DHT22;4744;52.576;13.568;2022-09-17T08:23:50;13.20;1.00
9410;DHT22;4744;52.576;13.568;2022-09-17T08:26:18;13.20;1.00
9410;DHT22;4744;52.576;13.568;2022-09-17T08:28:48;13.20;1.00
9410;DHT22;4744;52.576;13.568;2022-09-17T08:31:17;13.30;1.00
9410;DHT22;4744;52.576;13.568;2022-09-17T08:33:46;13.30;1.00
9410;DHT22;4744;52.576;13.568;2022-09-17T08:36:15;13.30;1.00
9410;DHT22;4744;52.576;13.568;2022-09-17T08:38:42;13.40;1.00
9410;DHT22;4744;52.576;13.568;2022-09-17T08:41:19;13.30;1.00
9410;DHT22;4744;52.576;13.568;2022-09-17T08:43:56;13.50;1.00
9410;DHT22;4744;52.576;13.568;2022-09-17T08:46:30;13.50;1.00
9410;DHT22;4744;52.576;13.568;2022-09-17T08:49:08;14.00;1.00
9410;DHT22;4744;52.576;13.568;2022-09-17T08:51:45;14.80;1.00
9410;DHT22;4744;52.576;13.568;2022-09-17T08:54:23;15.90;1.00
9410;DHT22;4744;52.576;13.568;2022-09-17T08:57:08;16.80;1.00
9410;DHT22;4744;52.576;13.568;2022-09-17T08:59:41;16.50;1.00
9410;DHT22;4744;52.576;13.568;2022-09-17T09:02:23;16.10;1.00
9410;DHT22;4744;52.576;13.568;2022-09-17T09:05:03;15.80;1.00
9410;DHT22;4744;52.576;13.568;2022-09-17T09:07:37;15.70;1.00
9410;DHT22;4744;52.576;13.568;2022-09-17T09:10:13;16.20;1.00
9410;DHT22;4744;52.576;13.568;2022-09-17T09:12:41;16.60;1.00
9410;DHT22;4744;52.576;13.568;2022-09-17T09:15:21;16.10;1.00
9410;DHT22;4744;52.576;13.568;2022-09-17T09:17:50;15.80;1.00
9410;DHT22;4744;52.576;13.568;2022-09-17T09:20:27;15.60;1.00
9410;DHT22;4744;52.576;13.568;2022-09-17T09:23:02;15.60;1.00
9410;DHT22;4744;52.576;13.568;2022-09-17T09:25:39;15.70;1.00
9410;DHT22;4744;52.576;13.568;2022-09-17T09:28:24;15.50;1.00
9410;DHT22;4744;52.576;13.568;2022-09-17T09:31:06;15.30;1.00
9410;DHT22;4744;52.576;13.568;2022-09-17T09:33:39;16.00;1.00
9410;DHT22;4744;52.576;13.568;2022-09-17T09:36:11;16.30;1.00
9410;DHT22;4744;52.576;13.568;2022-09-17T09:38:43;16.00;1.00
9410;DHT22;4744;52.576;13.568;2022-09-17T09:41:13;15.60;1.00
9410;DHT22;4744;52.576;13.568;2022-09-17T09:43:43;15.20;1.00
9410;DHT22;4744;52.576;13.568;2022-09-17T09:49:29;14.50;1.00
9410;DHT22;4744;52.576;13.568;2022-09-17T09:52:08;14.30;1.00
9410;DHT22;4744;52.576;13.568;2022-09-17T09:54:45;14.10;1.00
9410;DHT22;4744;52.576;13.568;2022-09-17T09:57:16;14.00;1.00
9410;DHT22;4744;52.576;13.568;2022-09-17T09:59:43;14.00;1.00
9410;DHT22;4744;52.576;13.568;2022-09-17T10:02:10;13.90;1.00
9410;DHT22;4744;52.576;13.568;2022-09-17T10:04:37;13.90;1.00
9410;DHT22;4744;52.576;13.568;2022-09-17T10:07:07;14.00;1.00
9410;DHT22;4744;52.576;13.568;2022-09-17T10:09:37;14.00;1.00
9410;DHT22;4744;52.576;13.568;2022-09-17T10:12:15;14.10;1.00
9410;DHT22;4744;52.576;13.568;2022-09-17T10:14:43;14.30;1.00
9410;DHT22;4744;52.576;13.568;2022-09-17T10:17:19;14.40;1.00
9410;DHT22;4744;52.576;13.568;2022-09-17T10:20:11;14.50;1.00
9410;DHT22;4744;52.576;13.568;2022-09-17T10:22:41;14.50;1.00
9410;DHT22;4744;52.576;13.568;2022-09-17T10:25:29;14.40;1.00
9410;DHT22;4744;52.576;13.568;2022-09-17T10:27:58;14.40;1.00
9410;DHT22;4744;52.576;13.568;2022-09-17T10:30:26;14.40;1.00
9410;DHT22;4744;52.576;13.568;2022-09-17T10:33:15;14.50;1.00
9410;DHT22;4744;52.576;13.568;2022-09-17T10:35:54;14.50;1.00
9410;DHT22;4744;52.576;13.568;2022-09-17T10:38:29;14.60;1.00
9410;DHT22;4744;52.576;13.568;2022-09-17T10:41:14;14.90;1.00
9410;DHT22;4744;52.576;13.568;2022-09-17T10:43:42;15.10;1.00
9410;DHT22;4744;52.576;13.568;2022-09-17T10:46:14;15.40;1.00
9410;DHT22;4744;52.576;13.568;2022-09-17T10:48:44;15.40;1.00
9410;DHT22;4744;52.576;13.568;2022-09-17T10:51:21;15.50;1.00
9410;DHT22;4744;52.576;13.568;2022-09-17T10:56:51;15.00;1.00
9410;DHT22;4744;52.576;13.568;2022-09-17T10:59:31;14.60;1.00
9410;DHT22;4744;52.576;13.568;2022-09-17T11:02:19;14.40;1.00
9410;DHT22;4744;52.576;13.568;2022-09-17T11:04:57;14.20;1.00
9410;DHT22;4744;52.576;13.568;2022-09-17T11:07:42;14.00;1.00
9410;DHT22;4744;52.576;13.568;2022-09-17T11:10:17;13.90;1.00
9410;DHT22;4744;52.576;13.568;2022-09-17T11:13:03;13.90;1.00
9410;DHT22;4744;52.576;13.568;2022-09-17T11:15:43;13.90;1.00
9410;DHT22;4744;52.576;13.568;2022-09-17T11:18:38;14.10;1.00
9410;DHT22;4744;52.576;13.568;2022-09-17T11:21:18;14.30;1.00
9410;DHT22;4744;52.576;13.568;2022-09-17T11:24:23;14.40;1.00
9410;DHT22;4744;52.576;13.568;2022-09-17T11:27:02;14.60;1.00
9410;DHT22;4744;52.576;13.568;2022-09-17T11:32:35;15.10;1.00
9410;DHT22;4744;52.576;13.568;2022-09-17T11:35:08;15.10;1.00
9410;DHT22;4744;52.576;13.568;2022-09-17T11:37:40;15.10;1.00
9410;DHT22;4744;52.576;13.568;2022-09-17T11:40:18;15.20;1.00
9410;DHT22;4744;52.576;13.568;2022-09-17T11:42:53;15.10;1.00
9410;DHT22;4744;52.576;13.568;2022-09-17T11:45:24;15.20;1.00
9410;DHT22;4744;52.576;13.568;2022-09-17T11:47:55;15.30;1.00
9410;DHT22;4744;52.576;13.568;2022-09-17T11:50:27;15.50;1.00
9410;DHT22;4744;52.576;13.568;2022-09-17T11:53:02;15.50;1.00
9410;DHT22;4744;52.576;13.568;2022-09-17T11:55:34;15.50;1.00
9410;DHT22;4744;52.576;13.568;2022-09-17T11:58:10;15.20;1.00
9410;DHT22;4744;52.576;13.568;2022-09-17T12:00:43;14.90;1.00
9410;DHT22;4744;52.576;13.568;2022-09-17T12:03:16;14.70;1.00
9410;DHT22;4744;52.576;13.568;2022-09-17T12:05:48;14.40;1.00
9410;DHT22;4744;52.576;13.568;2022-09-17T12:08:19;14.40;1.00
9410;DHT22;4744;52.576;13.568;2022-09-17T12:10:50;14.30;1.00
9410;DHT22;4744;52.576;13.568;2022-09-17T12:13:29;14.50;1.00
9410;DHT22;4744;52.576;13.568;2022-09-17T12:16:11;14.60;1.00
9410;DHT22;4744;52.576;13.568;2022-09-17T12:18:47;14.80;1.00
9410;DHT22;4744;52.576;13.568;2022-09-17T12:21:18;15.00;1.00
9410;DHT22;4744;52.576;13.568;2022-09-17T12:23:52;15.10;1.00
9410;DHT22;4744;52.576;13.568;2022-09-17T12:26:32;15.20;1.00
9410;DHT22;4744;52.576;13.568;2022-09-17T12:29:05;15.20;1.00
9410;DHT22;4744;52.576;13.568;2022-09-17T12:31:43;15.20;1.00
9410;DHT22;4744;52.576;13.568;2022-09-17T12:34:27;15.30;1.00
9410;DHT22;4744;52.576;13.568;2022-09-17T12:37:01;15.40;1.00
9410;DHT22;4744;52.576;13.568;2022-09-17T12:39:46;15.40;1.00
9410;DHT22;4744;52.576;13.568;2022-09-17T12:42:30;15.60;1.00
9410;DHT22;4744;52.576;13.568;2022-09-17T12:45:13;15.80;1.00
9410;DHT22;4744;52.576;13.568;2022-09-17T12:50:55;16.00;1.00
9410;DHT22;4744;52.576;13.568;2022-09-17T12:53:28;15.80;1.00
9410;DHT22;4744;52.576;13.568;2022-09-17T12:56:22;15.70;1.00
9410;DHT22;4744;52.576;13.568;2022-09-17T12:59:03;15.70;1.00
9410;DHT22;4744;52.576;13.568;2022-09-17T13:01:36;15.60;1.00
9410;DHT22;4744;52.576;13.568;2022-09-17T13:04:13;15.40;1.00
9410;DHT22;4744;52.576;13.568;2022-09-17T13:07:00;15.30;1.00
9410;DHT22;4744;52.576;13.568;2022-09-17T13:09:44;15.30;1.00
9410;DHT22;4744;52.576;13.568;2022-09-17T13:12:23;15.10;1.00
9410;DHT22;4744;52.576;13.568;2022-09-17T13:15:24;15.20;1.00
9410;DHT22;4744;52.576;13.568;2022-09-17T13:18:02;15.10;1.00
9410;DHT22;4744;52.576;13.568;2022-09-17T13:20:33;15.20;1.00
9410;DHT22;4744;52.576;13.568;2022-09-17T13:23:04;15.20;1.00
9410;DHT22;4744;52.576;13.568;2022-09-17T13:25:31;15.20;1.00
9410;DHT22;4744;52.576;13.568;2022-09-17T13:28:06;15.40;1.00
9410;DHT22;4744;52.576;13.568;2022-09-17T13:30:58;15.50;1.00
9410;DHT22;4744;52.576;13.568;2022-09-17T13:33:48;15.90;1.00
9410;DHT22;4744;52.576;13.568;2022-09-17T13:36:38;16.20;1.00
9410;DHT22;4744;52.576;13.568;2022-09-17T13:39:08;16.50;1.00
9410;DHT22;4744;52.576;13.568;2022-09-17T13:41:39;16.70;1.00
9410;DHT22;4744;52.576;13.568;2022-09-17T13:44:09;16.70;1.00
9410;DHT22;4744;52.576;13.568;2022-09-17T13:46:40;16.70;1.00
9410;DHT22;4744;52.576;13.568;2022-09-17T13:49:14;16.70;1.00
9410;DHT22;4744;52.576;13.568;2022-09-17T13:51:53;16.60;1.00
9410;DHT22;4744;52.576;13.568;2022-09-17T13:54:35;16.60;1.00
9410;DHT22;4744;52.576;13.568;2022-09-17T13:57:09;16.60;1.00
9410;DHT22;4744;52.576;13.568;2022-09-17T13:59:52;16.60;1.00
9410;DHT22;4744;52.576;13.568;2022-09-17T14:02:31;16.40;1.00
9410;DHT22;4744;52.576;13.568;2022-09-17T14:05:30;16.20;1.00
9410;DHT22;4744;52.576;13.568;2022-09-17T14:08:24;16.10;1.00
9410;DHT22;4744;52.576;13.568;2022-09-17T14:10:57;16.00;1.00
9410;DHT22;4744;52.576;13.568;2022-09-17T14:13:51;16.10;1.00
9410;DHT22;4744;52.576;13.568;2022-09-17T14:16:40;16.20;1.00
9410;DHT22;4744;52.576;13.568;2022-09-17T14:19:33;16.30;1.00
9410;DHT22;4744;52.576;13.568;2022-09-17T14:22:13;16.40;1.00
9410;DHT22;4744;52.576;13.568;2022-09-17T14:24:46;16.50;1.00
9410;DHT22;4744;52.576;13.568;2022-09-17T14:30:14;16.30;1.00
9410;DHT22;4744;52.576;13.568;2022-09-17T14:32:48;16.30;1.00
9410;DHT22;4744;52.576;13.568;2022-09-17T14:35:21;16.30;1.00
9410;DHT22;4744;52.576;13.568;2022-09-17T14:37:54;16.30;1.00
9410;DHT22;4744;52.576;13.568;2022-09-17T14:40:23;16.10;1.00
9410;DHT22;4744;52.576;13.568;2022-09-17T14:42:53;15.90;1.00
9410;DHT22;4744;52.576;13.568;2022-09-17T14:45:24;15.70;1.00
9410;DHT22;4744;52.576;13.568;2022-09-17T14:48:25;15.50;1.00
9410;DHT22;4744;52.576;13.568;2022-09-17T14:50:53;15.30;1.00
9410;DHT22;4744;52.576;13.568;2022-09-17T14:53:38;15.20;1.00
9410;DHT22;4744;52.576;13.568;2022-09-17T14:56:06;15.00;1.00
9410;DHT22;4744;52.576;13.568;2022-09-17T14:58:37;15.00;1.00
9410;DHT22;4744;52.576;13.568;2022-09-17T15:01:19;15.10;1.00
9410;DHT22;4744;52.576;13.568;2022-09-17T15:03:47;15.10;1.00
9410;DHT22;4744;52.576;13.568;2022-09-17T15:06:19;15.10;1.00
9410;DHT22;4744;52.576;13.568;2022-09-17T15:08:48;15.10;1.00
9410;DHT22;4744;52.576;13.568;2022-09-17T15:11:14;15.00;1.00
9410;DHT22;4744;52.576;13.568;2022-09-17T15:13:48;14.90;1.00
9410;DHT22;4744;52.576;13.568;2022-09-17T15:16:18;14.80;1.00
9410;DHT22;4744;52.576;13.568;2022-09-17T15:18:48;14.70;1.00
9410;DHT22;4744;52.576;13.568;2022-09-17T15:21:23;14.60;1.00
9410;DHT22;4744;52.576;13.568;2022-09-17T15:23:59;14.60;1.00
9410;DHT22;4744;52.576;13.568;2022-09-17T15:26:32;14.60;1.00
9410;DHT22;4744;52.576;13.568;2022-09-17T15:29:01;14.50;1.00
9410;DHT22;4744;52.576;13.568;2022-09-17T15:31:30;14.50;1.00
9410;DHT22;4744;52.576;13.568;2022-09-17T15:33:58;14.50;1.00
9410;DHT22;4744;52.576;13.568;2022-09-17T15:36:26;14.50;1.00
9410;DHT22;4744;52.576;13.568;2022-09-17T15:38:56;14.50;1.00
9410;DHT22;4744;52.576;13.568;2022-09-17T15:41:32;14.50;1.00
9410;DHT22;4744;52.576;13.568;2022-09-17T15:44:14;14.50;1.00
9410;DHT22;4744;52.576;13.568;2022-09-17T15:46:43;14.40;1.00
9410;DHT22;4744;52.576;13.568;2022-09-17T15:49:27;14.30;1.00
9410;DHT22;4744;52.576;13.568;2022-09-17T15:51:54;14.20;1.00
9410;DHT22;4744;52.576;13.568;2022-09-17T15:54:31;14.20;1.00
9410;DHT22;4744;52.576;13.568;2022-09-17T15:56:59;14.10;1.00
9410;DHT22;4744;52.576;13.568;2022-09-17T15:59:28;14.00;1.00
9410;DHT22;4744;52.576;13.568;2022-09-17T16:01:56;14.00;1.00
9410;DHT22;4744;52.576;13.568;2022-09-17T16:04:30;14.00;1.00
9410;DHT22;4744;52.576;13.568;2022-09-17T16:07:15;13.90;1.00
9410;DHT22;4744;52.576;13.568;2022-09-17T16:09:50;13.80;1.00
9410;DHT22;4744;52.576;13.568;2022-09-17T16:12:18;13.70;1.00
9410;DHT22;4744;52.576;13.568;2022-09-17T16:14:50;13.60;1.00
9410;DHT22;4744;52.576;13.568;2022-09-17T16:17:42;13.60;1.00
9410;DHT22;4744;52.576;13.568;2022-09-17T16:20:14;13.50;1.00
9410;DHT22;4744;52.576;13.568;2022-09-17T16:22:41;13.50;1.00
9410;DHT22;4744;52.576;13.568;2022-09-17T16:25:10;13.40;1.00
9410;DHT22;4744;52.576;13.568;2022-09-17T16:27:46;13.40;1.00
9410;DHT22;4744;52.576;13.568;2022-09-17T16:30:16;13.30;1.00
9410;DHT22;4744;52.576;13.568;2022-09-17T16:32:43;13.30;1.00
9410;DHT22;4744;52.576;13.568;2022-09-17T16:35:13;13.20;1.00
9410;DHT22;4744;52.576;13.568;2022-09-17T16:37:40;13.10;1.00
9410;DHT22;4744;52.576;13.568;2022-09-17T16:40:10;13.00;1.00
9410;DHT22;4744;52.576;13.568;2022-09-17T16:42:37;12.90;1.00
9410;DHT22;4744;52.576;13.568;2022-09-17T16:45:05;12.80;1.00
9410;DHT22;4744;52.576;13.568;2022-09-17T16:47:34;12.80;1.00
9410;DHT22;4744;52.576;13.568;2022-09-17T16:50:04;12.70;1.00